Heriot, United Kingdom
Current Conditions -  °F | °C
As of 9:20 AM on Friday 19 Dec 2014 (Local Time) from EGPH Reporting Station
Few Clouds Few Clouds  
Wind Chill: 30°   Ceiling: Unl
Heat Index: 39°   Visibility: 6mi
Dew Point: 32°   Wind: 16mph
Humidity: 75%   Direction: 260°W
Pressure: 29.59"   Gusts: NA
Location:  55.78°N, 2.96°W
Report Text: EGPH 190920Z 26014KT 9999 FEW010CB 04/00 Q1002
Loading
Personal Weather Stations






























Interactive Weather Map New forecast layout! Learn more

10-Day Weather Forecast

Advertisements
Track Severe Weather on mobile